createdAt,value
2022-10-30T00:01:39.143Z,3.70
2022-10-30T00:04:06.018Z,3.90
2022-10-30T00:06:33.029Z,4.40
2022-10-30T00:08:59.889Z,4.63
2022-10-30T00:11:26.771Z,4.53
2022-10-30T00:13:53.597Z,4.10
2022-10-30T00:16:20.674Z,4.25
2022-10-30T00:18:47.596Z,4.55
2022-10-30T00:21:15.333Z,4.35
2022-10-30T00:23:48.980Z,4.00
2022-10-30T00:26:16.206Z,4.30
2022-10-30T00:28:44.024Z,4.53
2022-10-30T00:31:10.957Z,4.35
2022-10-30T00:33:37.922Z,4.18
2022-10-30T00:36:05.409Z,4.45
2022-10-30T00:38:32.389Z,3.88
2022-10-30T00:40:59.363Z,3.67
2022-10-30T00:43:44.506Z,4.00
2022-10-30T00:46:35.390Z,3.60
2022-10-30T00:49:13.719Z,3.40
2022-10-30T00:51:43.243Z,4.13
2022-10-30T00:54:10.582Z,3.70
2022-10-30T00:56:37.483Z,3.65
2022-10-30T00:59:13.133Z,3.33
2022-10-30T01:01:41.576Z,4.00
2022-10-30T01:04:08.551Z,4.78
2022-10-30T01:06:37.078Z,3.70
2022-10-30T01:09:04.146Z,3.50
2022-10-30T01:11:31.371Z,3.78
2022-10-30T01:14:00.775Z,3.20
2022-10-30T01:16:52.219Z,3.58
2022-10-30T01:19:52.492Z,3.08
2022-10-30T01:22:19.383Z,3.03
2022-10-30T01:25:08.228Z,3.22
2022-10-30T01:27:47.130Z,3.15
2022-10-30T01:30:20.542Z,2.72
2022-10-30T01:33:06.776Z,3.72
2022-10-30T01:35:45.921Z,2.67
2022-10-30T01:38:29.851Z,3.10
2022-10-30T01:40:56.681Z,2.80
2022-10-30T01:43:23.854Z,3.15
2022-10-30T01:46:18.842Z,3.20
2022-10-30T01:49:19.753Z,2.65
2022-10-30T01:52:04.693Z,2.60
2022-10-30T01:55:00.421Z,2.90
2022-10-30T01:57:37.621Z,2.97
2022-10-30T02:00:11.661Z,3.00
2022-10-30T02:02:41.826Z,2.80
2022-10-30T02:05:13.752Z,2.63
2022-10-30T02:07:40.590Z,2.83
2022-10-30T02:10:10.882Z,2.58
2022-10-30T02:12:37.904Z,2.75
2022-10-30T02:15:04.905Z,2.40
2022-10-30T02:17:31.668Z,2.55
2022-10-30T02:19:58.452Z,2.70
2022-10-30T02:22:25.442Z,2.53
2022-10-30T02:24:52.489Z,2.70
2022-10-30T02:27:22.809Z,2.60
2022-10-30T02:29:49.644Z,2.30
2022-10-30T02:32:16.423Z,2.90
2022-10-30T02:34:44.314Z,2.45
2022-10-30T02:37:11.177Z,2.97
2022-10-30T02:39:39.976Z,2.58
2022-10-30T02:42:06.965Z,2.63
2022-10-30T02:44:35.111Z,2.40
2022-10-30T02:47:01.899Z,2.60
2022-10-30T02:49:28.807Z,3.08
2022-10-30T02:51:55.669Z,3.08
2022-10-30T02:54:22.656Z,2.53
2022-10-30T02:56:49.581Z,2.80
2022-10-30T02:59:16.434Z,2.33
2022-10-30T03:01:43.439Z,3.22
2022-10-30T03:04:10.318Z,2.83
2022-10-30T03:06:37.129Z,2.67
2022-10-30T03:09:04.063Z,2.75
2022-10-30T03:11:30.912Z,2.58
2022-10-30T03:13:57.786Z,2.60
2022-10-30T03:16:25.372Z,2.40
2022-10-30T03:18:52.447Z,2.60
2022-10-30T03:21:21.227Z,2.50
2022-10-30T03:23:48.480Z,2.60
2022-10-30T03:26:15.996Z,2.58
2022-10-30T03:28:56.052Z,2.33
2022-10-30T03:31:22.822Z,2.50
2022-10-30T03:34:07.269Z,2.33
2022-10-30T03:36:34.121Z,2.40
2022-10-30T03:39:00.937Z,2.78
2022-10-30T03:41:30.042Z,2.72
2022-10-30T03:43:56.883Z,2.60
2022-10-30T03:46:24.620Z,2.67
2022-10-30T03:48:54.461Z,2.60
2022-10-30T03:51:22.029Z,2.97
2022-10-30T03:53:50.646Z,2.92
2022-10-30T03:56:17.553Z,2.08
2022-10-30T03:58:48.386Z,2.67
2022-10-30T04:01:19.709Z,3.03
2022-10-30T04:03:50.488Z,2.33
2022-10-30T04:06:17.812Z,2.60
2022-10-30T04:08:44.602Z,2.70
2022-10-30T04:11:11.430Z,3.13
2022-10-30T04:13:39.246Z,2.40
2022-10-30T04:16:06.815Z,2.63
2022-10-30T04:18:34.160Z,2.92
2022-10-30T04:21:01.275Z,3.17
2022-10-30T04:23:28.403Z,2.80
2022-10-30T04:25:56.289Z,2.28
2022-10-30T04:28:23.338Z,2.65
2022-10-30T04:30:50.519Z,2.40
2022-10-30T04:33:17.933Z,2.75
2022-10-30T04:35:44.718Z,2.42
2022-10-30T04:38:15.885Z,2.80
2022-10-30T04:40:44.000Z,2.45
2022-10-30T04:43:12.312Z,2.50
2022-10-30T04:45:39.688Z,2.70
2022-10-30T04:48:17.516Z,2.75
2022-10-30T04:50:44.871Z,2.90
2022-10-30T04:53:18.620Z,2.95
2022-10-30T04:55:48.054Z,2.70
2022-10-30T04:58:15.301Z,2.72
2022-10-30T05:00:46.061Z,3.47
2022-10-30T05:03:22.178Z,2.75
2022-10-30T05:05:55.617Z,2.78
2022-10-30T05:08:22.431Z,2.90
2022-10-30T05:10:49.331Z,2.50
2022-10-30T05:13:16.256Z,2.83
2022-10-30T05:15:43.277Z,3.03
2022-10-30T05:18:10.236Z,3.20
2022-10-30T05:20:37.005Z,2.65
2022-10-30T05:23:04.152Z,2.47
2022-10-30T05:25:31.222Z,2.50
2022-10-30T05:28:01.741Z,2.80
2022-10-30T05:30:30.859Z,2.53
2022-10-30T05:33:06.090Z,2.83
2022-10-30T05:35:33.560Z,2.63
2022-10-30T05:38:01.167Z,3.00
2022-10-30T05:40:28.095Z,3.00
2022-10-30T05:42:55.115Z,2.40
2022-10-30T05:45:23.220Z,2.35
2022-10-30T05:48:01.972Z,2.90
2022-10-30T05:50:33.241Z,2.47
2022-10-30T05:53:23.458Z,2.38
2022-10-30T05:55:50.512Z,2.70
2022-10-30T05:58:21.055Z,3.00
2022-10-30T06:00:48.876Z,2.40
2022-10-30T06:03:22.982Z,2.63
2022-10-30T06:05:50.803Z,3.22
2022-10-30T06:08:18.366Z,2.92
2022-10-30T06:10:47.335Z,2.95
2022-10-30T06:13:18.240Z,2.50
2022-10-30T06:15:58.306Z,2.50
2022-10-30T06:18:32.013Z,2.40
2022-10-30T06:21:08.379Z,2.60
2022-10-30T06:23:48.157Z,2.90
2022-10-30T06:26:30.820Z,2.95
2022-10-30T06:29:03.758Z,2.58
2022-10-30T06:31:30.632Z,2.60
2022-10-30T06:33:59.615Z,2.90
2022-10-30T06:36:26.455Z,2.60
2022-10-30T06:38:54.033Z,2.58
2022-10-30T06:41:27.601Z,3.08
2022-10-30T06:44:22.901Z,2.80
2022-10-30T06:46:53.070Z,3.10
2022-10-30T06:49:20.118Z,2.20
2022-10-30T06:51:47.829Z,2.60
2022-10-30T06:54:15.866Z,2.40
2022-10-30T06:57:02.577Z,2.80
2022-10-30T06:59:48.021Z,2.67
2022-10-30T07:02:30.137Z,2.42
2022-10-30T07:05:02.984Z,2.60
2022-10-30T07:07:30.197Z,2.60
2022-10-30T07:09:57.044Z,2.33
2022-10-30T07:12:40.710Z,2.65
2022-10-30T07:15:18.927Z,2.70
2022-10-30T07:18:04.363Z,2.85
2022-10-30T07:20:35.058Z,3.10
2022-10-30T07:23:02.309Z,2.60
2022-10-30T07:25:29.545Z,2.80
2022-10-30T07:28:05.193Z,2.30
2022-10-30T07:30:53.372Z,1.80
2022-10-30T07:33:40.390Z,2.70
2022-10-30T07:36:20.301Z,2.60
2022-10-30T07:38:52.343Z,2.67
2022-10-30T07:41:49.914Z,2.33
2022-10-30T07:44:35.646Z,2.78
2022-10-30T07:47:23.286Z,2.50
2022-10-30T07:50:02.632Z,2.47
2022-10-30T07:52:32.942Z,2.33
2022-10-30T07:55:00.387Z,2.15
2022-10-30T07:57:56.804Z,2.10
2022-10-30T08:00:42.299Z,2.50
2022-10-30T08:03:19.353Z,2.40
2022-10-30T08:05:51.351Z,1.92
2022-10-30T08:08:26.629Z,2.60
2022-10-30T08:11:05.743Z,2.50
2022-10-30T08:13:33.722Z,2.58
2022-10-30T08:16:00.482Z,2.13
2022-10-30T08:18:27.695Z,2.40
2022-10-30T08:20:54.676Z,2.30
2022-10-30T08:23:21.862Z,2.35
2022-10-30T08:25:48.758Z,2.78
2022-10-30T08:28:16.186Z,2.17
2022-10-30T08:30:44.651Z,1.88
2022-10-30T08:33:15.026Z,2.53
2022-10-30T08:36:11.267Z,1.92
2022-10-30T08:38:38.324Z,2.38
2022-10-30T08:41:13.707Z,1.95
2022-10-30T08:43:46.603Z,2.38
2022-10-30T08:46:13.592Z,2.50
2022-10-30T08:48:41.257Z,2.13
2022-10-30T08:51:08.265Z,2.25
2022-10-30T08:53:40.699Z,2.40
2022-10-30T08:56:12.215Z,2.05
2022-10-30T08:58:51.122Z,2.03
2022-10-30T09:01:21.827Z,2.10
2022-10-30T09:04:18.142Z,2.42
2022-10-30T09:07:05.415Z,1.80
2022-10-30T09:10:03.995Z,2.22
2022-10-30T09:12:33.745Z,2.10
2022-10-30T09:15:01.249Z,2.38
2022-10-30T09:17:30.048Z,2.42
2022-10-30T09:19:57.100Z,2.22
2022-10-30T09:22:33.881Z,2.45
2022-10-30T09:25:02.247Z,2.25
2022-10-30T09:27:47.569Z,2.83
2022-10-30T09:30:15.406Z,1.88
2022-10-30T09:32:44.941Z,1.95
2022-10-30T09:35:16.521Z,2.40
2022-10-30T09:37:44.645Z,2.08
2022-10-30T09:40:24.790Z,2.30
2022-10-30T09:42:52.752Z,2.00
2022-10-30T09:45:46.180Z,1.88
2022-10-30T09:48:30.444Z,1.67
2022-10-30T09:51:09.688Z,1.83
2022-10-30T09:53:50.760Z,2.15
2022-10-30T09:56:45.672Z,1.95
2022-10-30T09:59:28.160Z,1.90
2022-10-30T10:02:02.555Z,2.05
2022-10-30T10:04:36.823Z,2.42
2022-10-30T10:07:19.929Z,1.60
2022-10-30T10:11:02.480Z,2.60
2022-10-30T10:13:36.113Z,2.35
2022-10-30T10:16:14.837Z,2.13
2022-10-30T10:18:50.188Z,2.25
2022-10-30T10:21:27.850Z,1.80
2022-10-30T10:24:04.321Z,2.25
2022-10-30T10:26:50.133Z,2.47
2022-10-30T10:29:20.913Z,2.17
2022-10-30T10:32:18.819Z,3.65
2022-10-30T10:35:01.946Z,1.88
2022-10-30T10:37:56.192Z,2.28
2022-10-30T10:40:23.500Z,1.90
2022-10-30T10:43:12.077Z,1.73
2022-10-30T10:46:05.015Z,1.80
2022-10-30T10:49:02.778Z,1.98
2022-10-30T10:51:32.047Z,2.00
2022-10-30T10:54:30.252Z,2.13
2022-10-30T10:56:57.110Z,1.80
2022-10-30T10:59:37.166Z,2.53
2022-10-30T11:02:30.055Z,2.42
2022-10-30T11:05:01.858Z,2.20
2022-10-30T11:07:33.730Z,2.42
2022-10-30T11:10:00.653Z,2.38
2022-10-30T11:12:32.287Z,2.35
2022-10-30T11:15:34.293Z,2.85
2022-10-30T11:18:19.341Z,2.67
2022-10-30T11:21:12.028Z,3.47
2022-10-30T11:26:32.913Z,4.03
2022-10-30T11:29:14.829Z,3.80
2022-10-30T11:31:44.861Z,2.70
2022-10-30T11:34:17.720Z,2.35
2022-10-30T11:36:45.338Z,2.45
2022-10-30T11:39:17.470Z,2.65
2022-10-30T11:44:12.470Z,1.95
2022-10-30T11:46:39.345Z,1.75
2022-10-30T11:49:06.361Z,2.20
2022-10-30T11:51:38.339Z,1.52
2022-10-30T11:54:05.752Z,2.35
2022-10-30T11:56:33.158Z,1.55
2022-10-30T11:59:02.709Z,1.80
2022-10-30T12:01:37.399Z,1.75
2022-10-30T12:04:16.287Z,1.65
2022-10-30T12:06:43.364Z,1.98
2022-10-30T12:09:22.793Z,1.73
2022-10-30T12:11:49.730Z,1.67
2022-10-30T12:14:24.063Z,2.30
2022-10-30T12:16:51.922Z,1.90
2022-10-30T12:19:20.485Z,1.50
2022-10-30T12:22:01.444Z,1.75
2022-10-30T12:24:32.855Z,1.83
2022-10-30T12:27:10.761Z,1.75
2022-10-30T12:32:49.671Z,1.70
2022-10-30T12:35:25.183Z,1.60
2022-10-30T12:37:53.500Z,1.80
2022-10-30T12:40:42.383Z,2.20
2022-10-30T12:43:21.755Z,1.75
2022-10-30T12:45:49.853Z,1.63
2022-10-30T12:48:27.483Z,1.98
2022-10-30T12:51:17.118Z,2.10
2022-10-30T12:53:58.541Z,2.92
2022-10-30T12:56:28.659Z,2.28
2022-10-30T12:59:35.515Z,2.30
2022-10-30T13:02:20.252Z,2.15
2022-10-30T13:04:49.883Z,2.17
2022-10-30T13:07:58.527Z,2.20
2022-10-30T13:10:39.161Z,2.38
2022-10-30T13:13:30.853Z,2.20
2022-10-30T13:15:58.935Z,2.08
2022-10-30T13:18:31.398Z,1.85
2022-10-30T13:21:13.064Z,2.03
2022-10-30T13:24:03.937Z,2.03
2022-10-30T13:26:33.937Z,1.65
2022-10-30T13:29:20.989Z,1.90
2022-10-30T13:32:03.063Z,1.90
2022-10-30T13:34:57.401Z,2.00
2022-10-30T13:37:41.375Z,1.90
2022-10-30T13:40:26.406Z,1.92
2022-10-30T13:42:53.227Z,1.60
2022-10-30T13:45:41.681Z,1.90
2022-10-30T13:48:13.809Z,2.45
2022-10-30T13:53:19.823Z,2.30
2022-10-30T13:55:46.671Z,1.90
2022-10-30T13:58:21.169Z,2.05
2022-10-30T14:01:09.924Z,2.08
2022-10-30T14:04:04.533Z,2.38
2022-10-30T14:06:55.582Z,1.60
2022-10-30T14:09:28.184Z,1.80
2022-10-30T14:11:57.993Z,1.70
2022-10-30T14:14:31.686Z,1.90
2022-10-30T14:17:10.864Z,1.90
2022-10-30T14:20:23.237Z,1.98
2022-10-30T14:23:20.971Z,1.77
2022-10-30T14:26:03.245Z,1.70
2022-10-30T14:28:30.736Z,2.60
2022-10-30T14:31:10.217Z,2.30
2022-10-30T14:33:48.797Z,2.03
2022-10-30T14:36:26.706Z,2.17
2022-10-30T14:38:54.033Z,1.88
2022-10-30T14:41:26.247Z,2.10
2022-10-30T14:44:21.226Z,2.13
2022-10-30T14:46:57.745Z,1.90
2022-10-30T14:49:42.348Z,2.35
2022-10-30T14:52:30.680Z,2.33
2022-10-30T14:55:14.679Z,1.90
2022-10-30T14:57:45.963Z,2.20
2022-10-30T15:00:25.786Z,2.47
2022-10-30T15:03:07.598Z,2.58
2022-10-30T15:05:54.779Z,2.17
2022-10-30T15:08:48.277Z,2.53
2022-10-30T15:11:45.357Z,2.40
2022-10-30T15:14:21.664Z,2.13
2022-10-30T15:16:59.528Z,2.30
2022-10-30T15:19:26.486Z,2.20
2022-10-30T15:21:54.932Z,2.10
2022-10-30T15:24:31.251Z,1.80
2022-10-30T15:26:59.984Z,2.15
2022-10-30T15:29:35.678Z,1.98
2022-10-30T15:32:03.982Z,2.40
2022-10-30T15:34:35.674Z,2.13
2022-10-30T15:37:11.497Z,2.00
2022-10-30T15:39:38.437Z,2.20
2022-10-30T15:42:05.269Z,2.00
2022-10-30T15:44:33.517Z,2.58
2022-10-30T15:47:01.872Z,2.25
2022-10-30T15:49:36.303Z,2.20
2022-10-30T15:52:17.423Z,1.90
2022-10-30T15:54:44.687Z,2.45
2022-10-30T15:57:56.832Z,2.00
2022-10-30T16:00:20.767Z,2.35
2022-10-30T16:02:49.533Z,3.00
2022-10-30T16:05:22.670Z,2.10
2022-10-30T16:07:49.617Z,2.22
2022-10-30T16:10:17.778Z,2.00
2022-10-30T16:12:44.754Z,2.40
2022-10-30T16:15:34.244Z,2.42
2022-10-30T16:18:21.544Z,2.15
2022-10-30T16:21:01.099Z,2.20
2022-10-30T16:23:27.997Z,2.00
2022-10-30T16:25:59.025Z,2.30
2022-10-30T16:28:36.241Z,2.40
2022-10-30T16:31:07.022Z,2.55
2022-10-30T16:33:35.079Z,2.25
2022-10-30T16:36:03.009Z,2.78
2022-10-30T16:38:33.001Z,2.20
2022-10-30T16:41:00.151Z,2.40
2022-10-30T16:43:31.263Z,2.60
2022-10-30T16:46:16.693Z,2.25
2022-10-30T16:48:46.699Z,2.10
2022-10-30T16:51:15.619Z,2.17
2022-10-30T16:53:50.543Z,2.30
2022-10-30T16:56:31.398Z,2.40
2022-10-30T16:59:07.477Z,2.28
2022-10-30T17:01:34.434Z,2.20
2022-10-30T17:04:01.442Z,2.50
2022-10-30T17:06:44.630Z,2.28
2022-10-30T17:09:27.002Z,2.50
2022-10-30T17:12:11.049Z,2.78
2022-10-30T17:14:55.778Z,2.30
2022-10-30T17:17:29.565Z,2.50
2022-10-30T17:19:59.647Z,2.80
2022-10-30T17:22:26.650Z,2.15
2022-10-30T17:24:53.608Z,2.25
2022-10-30T17:27:31.720Z,2.85
2022-10-30T17:29:58.571Z,2.85
2022-10-30T17:32:41.129Z,2.05
2022-10-30T17:35:18.148Z,2.70
2022-10-30T17:37:45.184Z,2.90
2022-10-30T17:40:12.746Z,2.58
2022-10-30T17:42:39.937Z,2.88
2022-10-30T17:45:10.347Z,2.80
2022-10-30T17:47:37.824Z,2.35
2022-10-30T17:50:05.572Z,2.17
2022-10-30T17:52:32.702Z,2.00
2022-10-30T17:55:00.565Z,3.03
2022-10-30T17:57:28.883Z,2.85
2022-10-30T17:59:55.778Z,2.60
2022-10-30T18:02:23.007Z,2.58
2022-10-30T18:04:49.986Z,2.40
2022-10-30T18:07:16.916Z,2.50
2022-10-30T18:09:43.981Z,2.80
2022-10-30T18:12:13.319Z,3.22
2022-10-30T18:14:40.516Z,3.53
2022-10-30T18:17:07.329Z,3.08
2022-10-30T18:19:34.158Z,3.25
2022-10-30T18:22:00.929Z,3.35
2022-10-30T18:24:27.737Z,3.50
2022-10-30T18:26:54.885Z,2.80
2022-10-30T18:29:21.729Z,3.13
2022-10-30T18:31:48.559Z,2.80
2022-10-30T18:34:17.201Z,2.75
2022-10-30T18:36:44.117Z,3.38
2022-10-30T18:39:12.806Z,2.88
2022-10-30T18:41:46.386Z,3.15
2022-10-30T18:44:17.092Z,2.22
2022-10-30T18:46:44.153Z,3.00
2022-10-30T18:49:11.031Z,2.53
2022-10-30T18:51:37.935Z,2.60
2022-10-30T18:54:11.751Z,2.60
2022-10-30T18:56:38.591Z,2.47
2022-10-30T18:59:05.419Z,2.88
2022-10-30T19:01:32.733Z,3.13
2022-10-30T19:04:02.220Z,2.58
2022-10-30T19:06:29.141Z,2.80
2022-10-30T19:08:55.996Z,2.38
2022-10-30T19:11:25.066Z,2.72
2022-10-30T19:13:53.834Z,2.33
2022-10-30T19:16:20.842Z,2.58
2022-10-30T19:18:48.507Z,2.78
2022-10-30T19:21:24.697Z,2.80
2022-10-30T19:23:51.532Z,3.03
2022-10-30T19:26:18.293Z,3.00
2022-10-30T19:28:45.470Z,3.00
2022-10-30T19:31:16.431Z,3.90
2022-10-30T19:33:43.259Z,3.20
2022-10-30T19:36:29.586Z,3.42
2022-10-30T19:38:56.533Z,3.22
2022-10-30T19:41:24.631Z,2.90
2022-10-30T19:43:52.470Z,3.65
2022-10-30T19:46:19.283Z,3.17
2022-10-30T19:49:01.578Z,2.55
2022-10-30T19:51:28.883Z,2.92
2022-10-30T19:53:55.941Z,2.65
2022-10-30T19:56:22.791Z,2.90
2022-10-30T19:58:49.763Z,2.70
2022-10-30T20:01:16.940Z,2.65
2022-10-30T20:03:43.934Z,2.40
2022-10-30T20:06:14.840Z,3.28
2022-10-30T20:08:41.799Z,3.00
2022-10-30T20:11:08.693Z,2.30
2022-10-30T20:13:37.031Z,2.88
2022-10-30T20:16:04.911Z,2.53
2022-10-30T20:18:33.435Z,2.75
2022-10-30T20:21:01.644Z,2.35
2022-10-30T20:23:28.521Z,3.20
2022-10-30T20:26:06.154Z,2.40
2022-10-30T20:28:40.557Z,2.40
2022-10-30T20:31:07.916Z,3.10
2022-10-30T20:33:34.791Z,3.03
2022-10-30T20:36:01.602Z,2.45
2022-10-30T20:38:31.305Z,3.13
2022-10-30T20:40:58.880Z,2.88
2022-10-30T20:43:34.972Z,3.08
2022-10-30T20:46:02.300Z,2.72
2022-10-30T20:48:29.308Z,3.25
2022-10-30T20:50:56.789Z,2.88
2022-10-30T20:53:23.643Z,2.97
2022-10-30T20:55:50.581Z,2.72
2022-10-30T20:58:17.505Z,2.80
2022-10-30T21:00:44.421Z,2.83
2022-10-30T21:03:14.320Z,2.60
2022-10-30T21:05:44.233Z,3.00
2022-10-30T21:08:12.641Z,2.97
2022-10-30T21:10:39.850Z,2.88
2022-10-30T21:13:09.075Z,2.80
2022-10-30T21:15:40.946Z,2.60
2022-10-30T21:18:08.107Z,2.80
2022-10-30T21:20:35.761Z,2.85
2022-10-30T21:23:02.581Z,2.60
2022-10-30T21:25:31.586Z,2.45
2022-10-30T21:27:58.721Z,2.88
2022-10-30T21:30:25.579Z,2.47
2022-10-30T21:32:52.483Z,2.60
2022-10-30T21:35:19.627Z,2.55
2022-10-30T21:37:46.593Z,2.38
2022-10-30T21:40:13.652Z,2.72
2022-10-30T21:42:40.616Z,2.80
2022-10-30T21:45:08.120Z,2.50
2022-10-30T21:47:34.945Z,3.20
2022-10-30T21:50:04.843Z,2.58
2022-10-30T21:52:34.805Z,2.47
2022-10-30T21:55:01.615Z,2.55
2022-10-30T21:57:29.237Z,2.45
2022-10-30T21:59:58.766Z,2.88
2022-10-30T22:02:31.295Z,2.65
2022-10-30T22:04:58.060Z,2.40
2022-10-30T22:07:24.965Z,2.55
2022-10-30T22:09:53.544Z,2.30
2022-10-30T22:12:20.395Z,2.65
2022-10-30T22:14:47.196Z,2.92
2022-10-30T22:17:13.970Z,3.90
2022-10-30T22:19:40.817Z,3.15
2022-10-30T22:22:07.638Z,2.40
2022-10-30T22:24:34.541Z,2.83
2022-10-30T22:27:01.296Z,2.80
2022-10-30T22:29:28.149Z,2.35
2022-10-30T22:31:54.964Z,2.70
2022-10-30T22:34:21.896Z,2.42
2022-10-30T22:36:48.811Z,2.70
2022-10-30T22:39:15.692Z,2.90
2022-10-30T22:41:42.606Z,2.50
2022-10-30T22:44:13.008Z,2.72
2022-10-30T22:46:39.920Z,2.80
2022-10-30T22:49:06.900Z,2.45
2022-10-30T22:51:34.544Z,2.45
2022-10-30T22:54:02.373Z,3.13
2022-10-30T22:56:31.283Z,2.70
2022-10-30T22:59:00.017Z,2.70
2022-10-30T23:01:28.336Z,2.60
2022-10-30T23:03:56.197Z,2.40
2022-10-30T23:06:23.217Z,2.95
2022-10-30T23:08:52.037Z,2.58
2022-10-30T23:11:18.912Z,3.28
2022-10-30T23:13:45.820Z,2.80
2022-10-30T23:16:17.723Z,2.90
2022-10-30T23:18:44.825Z,2.85
2022-10-30T23:21:19.309Z,3.35
2022-10-30T23:23:46.242Z,2.58
2022-10-30T23:26:21.358Z,2.60
2022-10-30T23:28:48.996Z,2.80
2022-10-30T23:31:19.654Z,3.13
2022-10-30T23:33:48.592Z,3.00
2022-10-30T23:36:15.489Z,2.70
2022-10-30T23:38:42.437Z,2.80
2022-10-30T23:41:09.373Z,3.47
2022-10-30T23:43:36.163Z,2.92
2022-10-30T23:46:03.031Z,2.90
2022-10-30T23:48:29.913Z,2.50
2022-10-30T23:50:56.720Z,2.85
2022-10-30T23:53:23.574Z,2.50
2022-10-30T23:55:54.215Z,2.75
2022-10-30T23:58:21.200Z,2.63
